N750GK KPVU-KSFO
Flight info
| Callsign | N750GK |
|---|---|
| Flight time | 1h 20m |
| Altitude | 34000 |
| Route | DITTI1 DAHLI DTA J148 OAL INYOE DYAMD5 |
| Aircraft | C750/M-VGDW/C |
Departure
| Time | 2026-05-04 01:43 |
|---|---|
| Airport | Provo Municipal Airport (KPVU) |
Arrival
| Time | 2026-05-04 03:03 |
|---|---|
| Airport | San Francisco International Airport (KSFO) |
| Time | Latitude | Longitude | Altitude | Speed | Heading |
|---|---|---|---|---|---|
| 2026-05-04 01:34 | 40.21973 | -111.72027 | 4499 ft | 0 kts | 83° |
| 2026-05-04 01:37 | 40.21967 | -111.72016 | 4500 ft | 3 kts | 144° |
| 2026-05-04 01:38 | 40.21945 | -111.72023 | 4498 ft | 3 kts | 207° |
| 2026-05-04 01:38 | 40.21938 | -111.72029 | 4497 ft | 0 kts | 211° |
| 2026-05-04 01:38 | 40.21920 | -111.72038 | 4498 ft | 6 kts | 190° |
| 2026-05-04 01:38 | 40.21872 | -111.72008 | 4498 ft | 8 kts | 144° |
| 2026-05-04 01:39 | 40.21822 | -111.71963 | 4500 ft | 9 kts | 146° |
| 2026-05-04 01:39 | 40.21766 | -111.71915 | 4500 ft | 9 kts | 146° |
| 2026-05-04 01:39 | 40.21712 | -111.71867 | 4501 ft | 11 kts | 146° |
| 2026-05-04 01:39 | 40.21653 | -111.71814 | 4502 ft | 11 kts | 144° |
| 2026-05-04 01:40 | 40.21583 | -111.71751 | 4499 ft | 12 kts | 146° |
| 2026-05-04 01:40 | 40.21518 | -111.71695 | 4502 ft | 10 kts | 146° |
| 2026-05-04 01:40 | 40.21452 | -111.71638 | 4502 ft | 13 kts | 146° |
| 2026-05-04 01:40 | 40.21371 | -111.71566 | 4496 ft | 15 kts | 146° |
| 2026-05-04 01:41 | 40.21294 | -111.71498 | 4495 ft | 10 kts | 146° |
| 2026-05-04 01:41 | 40.21241 | -111.71451 | 4496 ft | 9 kts | 146° |
| 2026-05-04 01:41 | 40.21186 | -111.71403 | 4492 ft | 10 kts | 151° |
| 2026-05-04 01:41 | 40.21127 | -111.71411 | 4492 ft | 7 kts | 233° |
| 2026-05-04 01:42 | 40.21098 | -111.71467 | 4490 ft | 8 kts | 237° |
| 2026-05-04 01:42 | 40.21080 | -111.71521 | 4490 ft | 5 kts | 281° |
| 2026-05-04 01:42 | 40.21092 | -111.71540 | 4491 ft | 1 kts | 323° |
| 2026-05-04 01:42 | 40.21291 | -111.71719 | 4492 ft | 88 kts | 326° |
| 2026-05-04 01:43 | 40.22028 | -111.72366 | 4558 ft | 152 kts | 326° |
| 2026-05-04 01:43 | 40.22948 | -111.73187 | 5131 ft | 164 kts | 322° |
| 2026-05-04 01:43 | 40.23603 | -111.74417 | 5834 ft | 168 kts | 290° |
| 2026-05-04 01:43 | 40.23789 | -111.75922 | 6652 ft | 169 kts | 265° |
| 2026-05-04 01:44 | 40.23441 | -111.77422 | 7373 ft | 184 kts | 239° |
| 2026-05-04 01:44 | 40.22561 | -111.78753 | 7816 ft | 208 kts | 226° |
| 2026-05-04 01:44 | 40.21510 | -111.80195 | 8382 ft | 230 kts | 227° |
| 2026-05-04 01:44 | 40.20370 | -111.81806 | 9018 ft | 252 kts | 227° |
| 2026-05-04 01:45 | 40.19120 | -111.83563 | 9575 ft | 275 kts | 227° |
| 2026-05-04 01:45 | 40.17761 | -111.85460 | 10163 ft | 293 kts | 227° |
| 2026-05-04 01:45 | 40.14736 | -111.89671 | 10671 ft | 344 kts | 226° |
| 2026-05-04 01:46 | 40.12699 | -111.91423 | 11086 ft | 356 kts | 202° |
| 2026-05-04 01:46 | 40.10354 | -111.92282 | 11959 ft | 356 kts | 194° |
| 2026-05-04 01:46 | 40.07910 | -111.92939 | 12700 ft | 361 kts | 191° |
| 2026-05-04 01:46 | 40.05435 | -111.93563 | 13405 ft | 364 kts | 192° |
| 2026-05-04 01:47 | 40.02941 | -111.94253 | 14122 ft | 367 kts | 192° |
| 2026-05-04 01:47 | 40.00388 | -111.94330 | 14699 ft | 373 kts | 171° |
| 2026-05-04 01:47 | 39.97885 | -111.93452 | 15446 ft | 373 kts | 164° |
| 2026-05-04 01:47 | 39.95392 | -111.92441 | 16130 ft | 377 kts | 163° |
| 2026-05-04 01:48 | 39.92876 | -111.91416 | 16838 ft | 380 kts | 164° |
| 2026-05-04 01:48 | 39.90331 | -111.90426 | 17543 ft | 383 kts | 165° |
| 2026-05-04 01:48 | 39.87674 | -111.90006 | 18155 ft | 386 kts | 182° |
| 2026-05-04 01:48 | 39.85002 | -111.90380 | 18924 ft | 384 kts | 189° |
| 2026-05-04 01:49 | 39.82353 | -111.90853 | 19697 ft | 386 kts | 189° |
| 2026-05-04 01:49 | 39.79709 | -111.91315 | 20373 ft | 390 kts | 189° |
| 2026-05-04 01:49 | 39.77002 | -111.91763 | 21066 ft | 393 kts | 189° |
| 2026-05-04 01:49 | 39.74292 | -111.92336 | 21690 ft | 396 kts | 195° |
| 2026-05-04 01:50 | 39.71708 | -111.93588 | 22375 ft | 397 kts | 206° |
| 2026-05-04 01:50 | 39.69343 | -111.95469 | 23063 ft | 400 kts | 217° |
| 2026-05-04 01:50 | 39.67288 | -111.97936 | 23679 ft | 403 kts | 227° |
| 2026-05-04 01:50 | 39.65428 | -112.00620 | 24230 ft | 406 kts | 228° |
| 2026-05-04 01:51 | 39.63522 | -112.03343 | 24799 ft | 409 kts | 227° |
| 2026-05-04 01:51 | 39.61595 | -112.06079 | 25364 ft | 411 kts | 227° |
| 2026-05-04 01:51 | 39.60317 | -112.07902 | 25765 ft | 412 kts | 227° |
| 2026-05-04 01:51 | 39.58384 | -112.10666 | 26309 ft | 415 kts | 227° |
| 2026-05-04 01:52 | 39.56437 | -112.13447 | 26888 ft | 418 kts | 227° |
| 2026-05-04 01:52 | 39.54470 | -112.16244 | 27472 ft | 420 kts | 227° |
| 2026-05-04 01:52 | 39.52494 | -112.19051 | 28032 ft | 423 kts | 227° |
| 2026-05-04 01:52 | 39.50501 | -112.21885 | 28594 ft | 426 kts | 227° |
| 2026-05-04 01:53 | 39.48499 | -112.24730 | 29149 ft | 429 kts | 226° |
| 2026-05-04 01:53 | 39.46479 | -112.27595 | 29693 ft | 432 kts | 226° |
| 2026-05-04 01:53 | 39.44441 | -112.30483 | 30162 ft | 436 kts | 226° |
| 2026-05-04 01:53 | 39.42388 | -112.33389 | 30592 ft | 439 kts | 226° |
| 2026-05-04 01:54 | 39.40324 | -112.36309 | 31137 ft | 439 kts | 227° |
| 2026-05-04 01:54 | 39.38271 | -112.39211 | 31828 ft | 436 kts | 227° |
| 2026-05-04 01:54 | 39.36226 | -112.42099 | 32467 ft | 434 kts | 227° |
| 2026-05-04 01:54 | 39.34212 | -112.44940 | 33100 ft | 433 kts | 227° |
| 2026-05-04 01:55 | 39.32241 | -112.47946 | 33715 ft | 433 kts | 233° |
| 2026-05-04 01:55 | 39.30625 | -112.51224 | 33790 ft | 444 kts | 240° |
| 2026-05-04 01:55 | 39.29331 | -112.54906 | 33793 ft | 457 kts | 248° |
| 2026-05-04 01:55 | 39.28390 | -112.58874 | 33788 ft | 467 kts | 252° |
| 2026-05-04 01:56 | 39.26581 | -112.67067 | 33798 ft | 480 kts | 252° |
| 2026-05-04 01:56 | 39.24722 | -112.75411 | 33787 ft | 486 kts | 252° |
| 2026-05-04 01:57 | 39.22862 | -112.83779 | 33789 ft | 490 kts | 252° |
| 2026-05-04 01:57 | 39.20967 | -112.92228 | 33788 ft | 491 kts | 252° |
| 2026-05-04 01:58 | 39.19068 | -113.00695 | 33788 ft | 491 kts | 252° |
| 2026-05-04 01:58 | 39.17159 | -113.09151 | 33790 ft | 491 kts | 252° |
| 2026-05-04 01:59 | 39.15244 | -113.17620 | 33796 ft | 492 kts | 252° |
| 2026-05-04 01:59 | 39.13319 | -113.26089 | 33801 ft | 492 kts | 252° |
| 2026-05-04 02:00 | 39.11402 | -113.34495 | 33801 ft | 491 kts | 252° |
| 2026-05-04 02:00 | 39.09469 | -113.42941 | 33812 ft | 491 kts | 252° |
| 2026-05-04 02:01 | 39.07527 | -113.51391 | 33806 ft | 491 kts | 252° |
| 2026-05-04 02:01 | 39.05582 | -113.59818 | 33802 ft | 491 kts | 252° |
| 2026-05-04 02:02 | 39.03637 | -113.68241 | 33792 ft | 491 kts | 252° |
| 2026-05-04 02:02 | 39.01683 | -113.76645 | 33801 ft | 488 kts | 252° |
| 2026-05-04 02:03 | 38.99753 | -113.84924 | 33800 ft | 487 kts | 252° |
| 2026-05-04 02:03 | 38.97800 | -113.93274 | 33806 ft | 487 kts | 252° |
| 2026-05-04 02:04 | 38.95841 | -114.01619 | 33806 ft | 487 kts | 252° |
| 2026-05-04 02:04 | 38.93877 | -114.09954 | 33804 ft | 486 kts | 252° |
| 2026-05-04 02:05 | 38.91913 | -114.18256 | 33806 ft | 485 kts | 252° |
| 2026-05-04 02:05 | 38.89955 | -114.26510 | 33801 ft | 486 kts | 252° |
| 2026-05-04 02:06 | 38.87979 | -114.34807 | 33806 ft | 486 kts | 252° |
| 2026-05-04 02:06 | 38.85999 | -114.43092 | 33812 ft | 483 kts | 252° |
| 2026-05-04 02:07 | 38.84019 | -114.51346 | 33819 ft | 484 kts | 252° |
| 2026-05-04 02:07 | 38.82033 | -114.59599 | 33820 ft | 484 kts | 252° |
| 2026-05-04 02:08 | 38.80058 | -114.67776 | 33817 ft | 482 kts | 252° |
| 2026-05-04 02:08 | 38.78066 | -114.75998 | 33817 ft | 483 kts | 251° |
| 2026-05-04 02:09 | 38.76065 | -114.84226 | 33812 ft | 484 kts | 251° |
| 2026-05-04 02:09 | 38.74054 | -114.92470 | 33812 ft | 484 kts | 251° |
| 2026-05-04 02:10 | 38.72039 | -115.00699 | 33820 ft | 484 kts | 251° |
| 2026-05-04 02:10 | 38.70040 | -115.08836 | 33811 ft | 482 kts | 251° |
| 2026-05-04 02:11 | 38.68022 | -115.17021 | 33815 ft | 482 kts | 251° |
| 2026-05-04 02:11 | 38.65996 | -115.25211 | 33812 ft | 482 kts | 251° |
| 2026-05-04 02:12 | 38.63969 | -115.33379 | 33831 ft | 482 kts | 251° |
| 2026-05-04 02:12 | 38.61948 | -115.41493 | 33814 ft | 480 kts | 251° |
| 2026-05-04 02:13 | 38.59910 | -115.49651 | 33811 ft | 481 kts | 251° |
| 2026-05-04 02:13 | 38.57864 | -115.57814 | 33823 ft | 482 kts | 251° |
| 2026-05-04 02:14 | 38.55813 | -115.65966 | 33831 ft | 479 kts | 251° |
| 2026-05-04 02:14 | 38.53786 | -115.74000 | 33830 ft | 479 kts | 251° |
| 2026-05-04 02:15 | 38.51735 | -115.82098 | 33819 ft | 479 kts | 251° |
| 2026-05-04 02:15 | 38.49680 | -115.90190 | 33837 ft | 479 kts | 251° |
| 2026-05-04 02:16 | 38.47615 | -115.98291 | 33836 ft | 479 kts | 251° |
| 2026-05-04 02:16 | 38.45544 | -116.06391 | 33844 ft | 481 kts | 251° |
| 2026-05-04 02:17 | 38.43464 | -116.14498 | 33855 ft | 480 kts | 251° |
| 2026-05-04 02:17 | 38.41381 | -116.22593 | 33852 ft | 481 kts | 251° |
| 2026-05-04 02:18 | 38.39297 | -116.30665 | 33868 ft | 476 kts | 251° |
| 2026-05-04 02:18 | 38.37219 | -116.38685 | 33872 ft | 477 kts | 251° |
| 2026-05-04 02:19 | 38.35147 | -116.46660 | 33867 ft | 474 kts | 251° |
| 2026-05-04 02:19 | 38.33066 | -116.54642 | 33873 ft | 476 kts | 250° |
| 2026-05-04 02:20 | 38.30977 | -116.62634 | 33877 ft | 475 kts | 251° |
| 2026-05-04 02:20 | 38.28880 | -116.70624 | 33870 ft | 473 kts | 250° |
| 2026-05-04 02:21 | 38.26799 | -116.78530 | 33878 ft | 475 kts | 250° |
| 2026-05-04 02:21 | 38.24693 | -116.86509 | 33900 ft | 476 kts | 250° |
| 2026-05-04 02:22 | 38.22590 | -116.94452 | 33919 ft | 473 kts | 250° |
| 2026-05-04 02:22 | 38.20482 | -117.02384 | 33936 ft | 474 kts | 250° |
| 2026-05-04 02:23 | 38.18366 | -117.10324 | 33950 ft | 474 kts | 250° |
| 2026-05-04 02:23 | 38.16244 | -117.18263 | 33951 ft | 472 kts | 250° |
| 2026-05-04 02:24 | 38.14156 | -117.26052 | 33927 ft | 468 kts | 250° |
| 2026-05-04 02:24 | 38.13105 | -117.29963 | 33809 ft | 468 kts | 250° |
| 2026-05-04 02:24 | 38.12051 | -117.33878 | 33809 ft | 469 kts | 250° |
| 2026-05-04 02:25 | 38.09933 | -117.41730 | 33858 ft | 470 kts | 250° |
| 2026-05-04 02:25 | 38.07808 | -117.49583 | 33811 ft | 470 kts | 250° |
| 2026-05-04 02:26 | 38.05678 | -117.57432 | 33788 ft | 470 kts | 250° |
| 2026-05-04 02:26 | 38.03551 | -117.65243 | 33780 ft | 470 kts | 250° |
| 2026-05-04 02:27 | 38.01409 | -117.73087 | 33773 ft | 470 kts | 250° |
| 2026-05-04 02:27 | 37.99901 | -117.81103 | 33757 ft | 472 kts | 260° |
| 2026-05-04 02:28 | 37.99049 | -117.89355 | 33763 ft | 471 kts | 260° |
| 2026-05-04 02:28 | 37.98166 | -117.97603 | 33766 ft | 471 kts | 260° |
| 2026-05-04 02:29 | 37.97305 | -118.05832 | 33766 ft | 470 kts | 260° |
| 2026-05-04 02:29 | 37.96416 | -118.14080 | 33792 ft | 473 kts | 260° |
| 2026-05-04 02:30 | 37.95538 | -118.22309 | 33800 ft | 474 kts | 260° |
| 2026-05-04 02:30 | 37.94633 | -118.30635 | 33812 ft | 474 kts | 260° |
| 2026-05-04 02:31 | 37.93740 | -118.38859 | 33817 ft | 474 kts | 260° |
| 2026-05-04 02:31 | 37.92832 | -118.47125 | 33834 ft | 474 kts | 260° |
| 2026-05-04 02:32 | 37.91918 | -118.55411 | 33838 ft | 478 kts | 259° |
| 2026-05-04 02:32 | 37.90984 | -118.63807 | 33862 ft | 483 kts | 259° |
| 2026-05-04 02:33 | 37.90039 | -118.72263 | 33895 ft | 486 kts | 259° |
| 2026-05-04 02:33 | 37.89084 | -118.80749 | 33919 ft | 486 kts | 259° |
| 2026-05-04 02:34 | 37.88122 | -118.89231 | 33920 ft | 487 kts | 259° |
| 2026-05-04 02:34 | 37.87154 | -118.97715 | 33929 ft | 487 kts | 259° |
| 2026-05-04 02:35 | 37.86186 | -119.06141 | 33923 ft | 486 kts | 259° |
| 2026-05-04 02:35 | 37.85206 | -119.14626 | 33912 ft | 486 kts | 259° |
| 2026-05-04 02:36 | 37.84221 | -119.23088 | 33916 ft | 486 kts | 259° |
| 2026-05-04 02:36 | 37.83232 | -119.31545 | 33927 ft | 485 kts | 259° |
| 2026-05-04 02:37 | 37.82236 | -119.39990 | 33926 ft | 486 kts | 259° |
| 2026-05-04 02:37 | 37.81234 | -119.48447 | 33941 ft | 485 kts | 259° |
| 2026-05-04 02:38 | 37.80228 | -119.56876 | 33946 ft | 482 kts | 259° |
| 2026-05-04 02:38 | 37.79230 | -119.65188 | 33948 ft | 481 kts | 259° |
| 2026-05-04 02:39 | 37.78216 | -119.73575 | 33943 ft | 483 kts | 259° |
| 2026-05-04 02:39 | 37.77196 | -119.81974 | 33941 ft | 482 kts | 259° |
| 2026-05-04 02:40 | 37.76169 | -119.90370 | 33935 ft | 488 kts | 259° |
| 2026-05-04 02:40 | 37.75293 | -119.97485 | 33934 ft | 495 kts | 259° |
| 2026-05-04 02:41 | 37.74054 | -120.07516 | 33932 ft | 498 kts | 259° |
| 2026-05-04 02:41 | 37.73171 | -120.14614 | 33487 ft | 472 kts | 259° |
| 2026-05-04 02:42 | 37.72677 | -120.18599 | 32880 ft | 449 kts | 259° |
| 2026-05-04 02:42 | 37.72185 | -120.22496 | 32296 ft | 455 kts | 259° |
| 2026-05-04 02:42 | 37.71678 | -120.26482 | 31700 ft | 463 kts | 259° |
| 2026-05-04 02:42 | 37.71166 | -120.30553 | 31088 ft | 473 kts | 259° |
| 2026-05-04 02:43 | 37.70645 | -120.34705 | 30460 ft | 484 kts | 259° |
| 2026-05-04 02:43 | 37.70119 | -120.38862 | 29804 ft | 470 kts | 259° |
| 2026-05-04 02:43 | 37.69613 | -120.42890 | 29178 ft | 457 kts | 259° |
| 2026-05-04 02:43 | 37.69158 | -120.46845 | 28571 ft | 454 kts | 261° |
| 2026-05-04 02:44 | 37.68731 | -120.50735 | 27981 ft | 451 kts | 261° |
| 2026-05-04 02:44 | 37.68278 | -120.54639 | 27394 ft | 447 kts | 260° |
| 2026-05-04 02:44 | 37.67810 | -120.58509 | 26803 ft | 443 kts | 259° |
| 2026-05-04 02:44 | 37.67354 | -120.62353 | 26224 ft | 440 kts | 260° |
| 2026-05-04 02:45 | 37.66913 | -120.66169 | 25647 ft | 437 kts | 260° |
| 2026-05-04 02:45 | 37.66472 | -120.69941 | 25068 ft | 433 kts | 260° |
| 2026-05-04 02:45 | 37.66034 | -120.73612 | 24515 ft | 418 kts | 259° |
| 2026-05-04 02:45 | 37.65606 | -120.77202 | 23978 ft | 410 kts | 259° |
| 2026-05-04 02:46 | 37.65178 | -120.80760 | 23423 ft | 409 kts | 259° |
| 2026-05-04 02:46 | 37.64753 | -120.84283 | 22856 ft | 404 kts | 259° |
| 2026-05-04 02:46 | 37.64332 | -120.87775 | 22326 ft | 401 kts | 259° |
| 2026-05-04 02:46 | 37.63914 | -120.91237 | 21799 ft | 397 kts | 259° |
| 2026-05-04 02:47 | 37.63498 | -120.94668 | 21272 ft | 394 kts | 259° |
| 2026-05-04 02:47 | 37.63080 | -120.98065 | 20756 ft | 390 kts | 258° |
| 2026-05-04 02:47 | 37.62627 | -121.01422 | 20241 ft | 385 kts | 257° |
| 2026-05-04 02:47 | 37.62166 | -121.04734 | 19736 ft | 381 kts | 258° |
| 2026-05-04 02:48 | 37.61727 | -121.08020 | 19236 ft | 378 kts | 258° |
| 2026-05-04 02:48 | 37.61301 | -121.11280 | 18740 ft | 376 kts | 258° |
| 2026-05-04 02:48 | 37.60868 | -121.14519 | 18247 ft | 377 kts | 258° |
| 2026-05-04 02:48 | 37.60428 | -121.17748 | 17720 ft | 370 kts | 258° |
| 2026-05-04 02:49 | 37.59998 | -121.20942 | 17236 ft | 369 kts | 258° |
| 2026-05-04 02:49 | 37.59578 | -121.24075 | 16780 ft | 365 kts | 258° |
| 2026-05-04 02:49 | 37.59184 | -121.27211 | 16285 ft | 359 kts | 262° |
| 2026-05-04 02:49 | 37.58868 | -121.30330 | 15824 ft | 359 kts | 259° |
| 2026-05-04 02:50 | 37.58463 | -121.33416 | 15356 ft | 357 kts | 258° |
| 2026-05-04 02:50 | 37.58076 | -121.36490 | 14886 ft | 353 kts | 260° |
| 2026-05-04 02:50 | 37.57743 | -121.39552 | 14417 ft | 350 kts | 261° |
| 2026-05-04 02:50 | 37.57412 | -121.42587 | 13965 ft | 349 kts | 259° |
| 2026-05-04 02:51 | 37.57055 | -121.45604 | 13481 ft | 346 kts | 259° |
| 2026-05-04 02:51 | 37.56697 | -121.48600 | 13020 ft | 343 kts | 260° |
| 2026-05-04 02:51 | 37.56353 | -121.51571 | 12562 ft | 341 kts | 260° |
| 2026-05-04 02:51 | 37.56016 | -121.54496 | 12121 ft | 330 kts | 260° |
| 2026-05-04 02:52 | 37.55694 | -121.57275 | 11691 ft | 310 kts | 259° |
| 2026-05-04 02:52 | 37.55382 | -121.59918 | 11291 ft | 302 kts | 259° |
| 2026-05-04 02:52 | 37.55054 | -121.62513 | 10889 ft | 297 kts | 256° |
| 2026-05-04 02:52 | 37.54490 | -121.64962 | 10534 ft | 294 kts | 251° |
| 2026-05-04 02:53 | 37.53893 | -121.67414 | 10155 ft | 292 kts | 251° |
| 2026-05-04 02:53 | 37.53316 | -121.69858 | 9758 ft | 289 kts | 250° |
| 2026-05-04 02:53 | 37.52742 | -121.72286 | 9362 ft | 287 kts | 249° |
| 2026-05-04 02:53 | 37.52165 | -121.74699 | 8979 ft | 286 kts | 250° |
| 2026-05-04 02:54 | 37.51604 | -121.77035 | 8624 ft | 272 kts | 251° |
| 2026-05-04 02:54 | 37.51065 | -121.79286 | 8262 ft | 266 kts | 249° |
| 2026-05-04 02:54 | 37.50534 | -121.81501 | 7918 ft | 262 kts | 249° |
| 2026-05-04 02:54 | 37.50007 | -121.83687 | 7583 ft | 260 kts | 249° |
| 2026-05-04 02:55 | 37.49108 | -121.88092 | 6851 ft | 264 kts | 265° |
| 2026-05-04 02:55 | 37.49243 | -121.90387 | 6662 ft | 263 kts | 271° |
| 2026-05-04 02:55 | 37.49392 | -121.92668 | 6409 ft | 265 kts | 270° |
| 2026-05-04 02:56 | 37.49517 | -121.94986 | 6098 ft | 264 kts | 270° |
| 2026-05-04 02:56 | 37.49645 | -121.97273 | 5793 ft | 259 kts | 270° |
| 2026-05-04 02:56 | 37.49776 | -121.99511 | 5487 ft | 253 kts | 271° |
| 2026-05-04 02:56 | 37.49903 | -122.01709 | 5204 ft | 250 kts | 271° |
| 2026-05-04 02:57 | 37.50027 | -122.03884 | 4922 ft | 247 kts | 271° |
| 2026-05-04 02:57 | 37.50150 | -122.06040 | 4640 ft | 245 kts | 271° |
| 2026-05-04 02:57 | 37.50271 | -122.08169 | 4349 ft | 243 kts | 272° |
| 2026-05-04 02:57 | 37.50606 | -122.10140 | 4026 ft | 226 kts | 290° |
| 2026-05-04 02:58 | 37.51337 | -122.11849 | 3793 ft | 218 kts | 296° |
| 2026-05-04 02:58 | 37.52058 | -122.13516 | 3571 ft | 215 kts | 295° |
| 2026-05-04 02:58 | 37.52753 | -122.15182 | 3331 ft | 212 kts | 294° |
| 2026-05-04 02:58 | 37.53438 | -122.16823 | 3089 ft | 212 kts | 295° |
| 2026-05-04 02:59 | 37.54118 | -122.18446 | 2994 ft | 207 kts | 295° |
| 2026-05-04 02:59 | 37.54805 | -122.20087 | 2811 ft | 211 kts | 295° |
| 2026-05-04 02:59 | 37.55481 | -122.21698 | 2534 ft | 207 kts | 294° |
| 2026-05-04 02:59 | 37.56154 | -122.23304 | 2250 ft | 207 kts | 294° |
| 2026-05-04 03:00 | 37.56809 | -122.24863 | 1963 ft | 191 kts | 294° |
| 2026-05-04 03:00 | 37.57390 | -122.26238 | 1703 ft | 160 kts | 293° |
| 2026-05-04 03:00 | 37.57849 | -122.27346 | 1494 ft | 129 kts | 294° |
| 2026-05-04 03:00 | 37.58246 | -122.28288 | 1333 ft | 120 kts | 294° |
| 2026-05-04 03:01 | 37.58637 | -122.29203 | 1150 ft | 118 kts | 294° |
| 2026-05-04 03:01 | 37.59012 | -122.30117 | 984 ft | 116 kts | 294° |
| 2026-05-04 03:01 | 37.59389 | -122.31007 | 848 ft | 115 kts | 295° |
| 2026-05-04 03:01 | 37.59765 | -122.31899 | 722 ft | 116 kts | 293° |
| 2026-05-04 03:02 | 37.60146 | -122.32808 | 529 ft | 119 kts | 293° |
| 2026-05-04 03:02 | 37.60530 | -122.33727 | 365 ft | 117 kts | 292° |
| 2026-05-04 03:02 | 37.60902 | -122.34629 | 243 ft | 115 kts | 291° |
| 2026-05-04 03:02 | 37.61274 | -122.35525 | 135 ft | 114 kts | 294° |
| 2026-05-04 03:03 | 37.61643 | -122.36401 | 37 ft | 111 kts | 292° |
| 2026-05-04 03:03 | 37.61974 | -122.37199 | 12 ft | 84 kts | 298° |
| 2026-05-04 03:03 | 37.62155 | -122.37624 | 16 ft | 40 kts | 299° |
| 2026-05-04 03:03 | 37.62282 | -122.37909 | 19 ft | 34 kts | 300° |
| 2026-05-04 03:04 | 37.62382 | -122.38102 | 18 ft | 20 kts | 323° |
| 2026-05-04 03:04 | 37.62470 | -122.38131 | 16 ft | 9 kts | 7° |
| 2026-05-04 03:04 | 37.62527 | -122.38145 | 15 ft | 10 kts | 305° |
| 2026-05-04 03:04 | 37.62566 | -122.38239 | 13 ft | 13 kts | 297° |
| 2026-05-04 03:05 | 37.62612 | -122.38346 | 12 ft | 14 kts | 298° |
| 2026-05-04 03:05 | 37.62655 | -122.38446 | 14 ft | 12 kts | 307° |
| 2026-05-04 03:05 | 37.62712 | -122.38443 | 14 ft | 9 kts | 30° |
| 2026-05-04 03:05 | 37.62761 | -122.38405 | 13 ft | 6 kts | 26° |
| 2026-05-04 03:06 | 37.62788 | -122.38418 | 13 ft | 3 kts | 294° |
| 2026-05-04 03:06 | 37.62786 | -122.38437 | 13 ft | 2 kts | 253° |
| 2026-05-04 03:06 | 37.62785 | -122.38441 | 13 ft | 0 kts | 252° |